Time;durP1;ratioP1;P1;durP2;ratioP2;P2;SDS_P1;SDS_P2;PMS_P1;PMS_P2;Temp;Humidity;BMP_temperature;BMP_pressure;BME280_temperature;BME280_humidity;BME280_pressure;Samples;Min_cycle;Max_cycle;Signal;HPM_P1;HPM_P2
2022/12/20 00:01:43;;;;;;;;;4.00;4.00;;;;;-146.50;100.00;59256.41;5084425;27;45522;-71
2022/12/20 00:04:09;;;;;;;;;5.00;5.00;;;;;-146.50;100.00;59256.41;5085820;27;45924;-72
2022/12/20 00:06:35;;;;;;;;;7.25;5.75;;;;;-146.50;100.00;59256.41;5054842;28;45667;-72
2022/12/20 00:09:03;;;;;;;;;4.50;4.50;;;;;-146.50;100.00;59256.41;5076761;27;45591;-72
2022/12/20 00:11:29;;;;;;;;;7.75;6.25;;;;;-146.50;100.00;59256.41;5072942;27;45396;-72
2022/12/20 00:13:55;;;;;;;;;8.25;6.50;;;;;-146.50;100.00;59256.41;5083484;27;45581;-72
2022/12/20 00:16:22;;;;;;;;;5.50;5.50;;;;;-146.50;100.00;59256.41;5078637;27;45484;-72
2022/12/20 00:19:02;;;;;;;;;6.00;6.00;;;;;-146.50;100.00;59256.41;5075294;27;45628;-72
2022/12/20 00:21:29;;;;;;;;;5.25;5.25;;;;;-146.50;100.00;59256.41;5086283;27;45458;-72
2022/12/20 00:23:55;;;;;;;;;6.75;5.00;;;;;-146.50;100.00;59256.41;5116525;27;46876;-72
2022/12/20 00:26:25;;;;;;;;;6.50;6.00;;;;;-146.50;100.00;59256.41;5078435;27;45488;-72
2022/12/20 00:28:51;;;;;;;;;5.00;5.00;;;;;-146.50;100.00;59256.41;5089028;27;45391;-72
2022/12/20 00:31:18;;;;;;;;;4.75;4.75;;;;;-146.50;100.00;59256.41;5077085;27;45568;-72
2022/12/20 00:33:46;;;;;;;;;6.50;5.00;;;;;-146.50;100.00;59256.41;5083565;27;46360;-73
2022/12/20 00:36:12;;;;;;;;;5.25;5.25;;;;;-146.50;100.00;59256.41;5079806;27;45564;-73
2022/12/20 00:38:37;;;;;;;;;2.00;2.00;;;;;-146.50;100.00;59256.41;5072531;27;45403;-73
2022/12/20 00:41:06;;;;;;;;;5.50;4.25;;;;;-146.50;100.00;59256.41;5071687;27;45511;-72
2022/12/20 00:43:33;;;;;;;;;5.00;4.00;;;;;-146.50;100.00;59256.41;5092303;27;47659;-72
2022/12/20 00:45:58;;;;;;;;;4.75;4.75;;;;;-146.50;100.00;59256.41;5072657;27;45624;-72
2022/12/20 00:48:25;;;;;;;;;7.75;5.00;;;;;-146.50;100.00;59256.41;5111376;27;45510;-73
2022/12/20 00:50:50;;;;;;;;;4.00;4.00;;;;;-146.50;100.00;59256.41;5076768;27;45512;-72
2022/12/20 00:53:16;;;;;;;;;6.00;3.50;;;;;-146.50;100.00;59256.41;5071687;27;45378;-72
2022/12/20 00:55:46;;;;;;;;;4.75;4.00;;;;;-146.50;100.00;59256.41;5081453;27;45335;-72
2022/12/20 00:58:12;;;;;;;;;5.25;4.25;;;;;-146.50;100.00;59256.41;5079389;27;45640;-73
2022/12/20 01:00:38;;;;;;;;;5.75;4.00;;;;;-146.50;100.00;59256.41;5088868;27;45462;-72
2022/12/20 01:03:05;;;;;;;;;5.25;4.75;;;;;-146.50;100.00;59256.41;5108425;27;46186;-71
2022/12/20 01:05:31;;;;;;;;;4.00;4.00;;;;;-146.50;100.00;59256.41;5083647;27;45742;-73
2022/12/20 01:07:58;;;;;;;;;4.00;4.00;;;;;-146.50;100.00;59256.41;5083403;27;45342;-73
2022/12/20 01:10:23;;;;;;;;;3.75;3.75;;;;;-146.50;100.00;59256.41;5077468;27;45351;-73
2022/12/20 01:12:49;;;;;;;;;4.25;4.25;;;;;-146.50;100.00;59256.41;5088471;27;45459;-72
2022/12/20 01:15:16;;;;;;;;;3.50;3.00;;;;;-146.50;100.00;59256.41;5077200;27;45496;-73
2022/12/20 01:17:41;;;;;;;;;4.50;4.00;;;;;-146.50;100.00;59256.41;5070754;27;45381;-73
2022/12/20 01:20:08;;;;;;;;;5.00;4.00;;;;;-146.50;100.00;59256.41;5084352;27;45842;-74
2022/12/20 01:22:33;;;;;;;;;6.50;3.25;;;;;-146.50;100.00;59256.41;5074955;27;46407;-73
2022/12/20 01:24:59;;;;;;;;;2.75;2.75;;;;;-146.50;100.00;59256.41;5075251;27;45589;-74
2022/12/20 01:27:24;;;;;;;;;2.75;2.75;;;;;-146.50;100.00;59256.41;5071740;27;45445;-73
2022/12/20 01:29:50;;;;;;;;;4.00;3.00;;;;;-146.50;100.00;59256.41;5070349;27;45477;-73
2022/12/20 01:32:15;;;;;;;;;3.00;3.00;;;;;-146.50;100.00;59256.41;5073026;27;45988;-73
2022/12/20 01:34:41;;;;;;;;;4.00;4.00;;;;;-146.50;100.00;59256.41;5073398;27;45670;-73
2022/12/20 01:37:06;;;;;;;;;1.00;1.00;;;;;-146.50;100.00;59256.41;5074922;27;45592;-72
2022/12/20 01:39:32;;;;;;;;;2.00;2.00;;;;;-146.50;100.00;59256.41;5079442;27;45436;-72
2022/12/20 01:41:57;;;;;;;;;1.75;1.75;;;;;-146.50;100.00;59256.41;5078734;27;46256;-72
2022/12/20 01:44:22;;;;;;;;;2.00;2.00;;;;;-146.50;100.00;59256.41;5074882;27;45460;-72
2022/12/20 01:46:49;;;;;;;;;2.25;2.25;;;;;-146.50;100.00;59256.41;5078347;27;45340;-72
2022/12/20 01:49:28;;;;;;;;;2.75;2.75;;;;;-146.50;100.00;59256.41;5075788;27;45929;-72
2022/12/20 01:52:05;;;;;;;;;3.25;2.00;;;;;-146.50;100.00;59256.41;5074164;27;47617;-72
2022/12/20 01:54:35;;;;;;;;;3.00;3.00;;;;;-146.50;100.00;59256.41;5074527;27;45690;-72
2022/12/20 01:57:30;;;;;;;;;4.00;4.00;;;;;-146.50;100.00;59256.41;5076895;27;45537;-72
2022/12/20 01:59:57;;;;;;;;;3.00;3.00;;;;;-146.50;100.00;59256.41;5073036;27;45628;-72
2022/12/20 02:02:23;;;;;;;;;3.00;3.00;;;;;-146.50;100.00;59256.41;5073527;27;46171;-74
2022/12/20 02:04:48;;;;;;;;;3.00;3.00;;;;;-146.50;100.00;59256.41;5077470;27;45580;-74
2022/12/20 02:07:20;;;;;;;;;2.25;1.75;;;;;-146.50;100.00;59256.41;5077349;27;45541;-74
2022/12/20 02:09:47;;;;;;;;;2.50;2.50;;;;;-146.50;100.00;59256.41;5074492;27;45692;-73
2022/12/20 02:12:20;;;;;;;;;3.00;3.00;;;;;-146.50;100.00;59256.41;5076522;27;46981;-74
2022/12/20 02:15:24;;;;;;;;;3.25;3.00;;;;;-146.50;100.00;59256.41;5075513;27;45559;-74
2022/12/20 02:18:11;;;;;;;;;3.50;3.50;;;;;-146.50;100.00;59256.41;5009426;28;45616;-73
2022/12/20 02:20:45;;;;;;;;;2.25;2.25;;;;;-146.50;100.00;59256.41;5010668;28;45578;-73
2022/12/20 02:23:26;;;;;;;;;3.75;3.75;;;;;-146.50;100.00;59256.41;4993752;28;45672;-73
2022/12/20 02:26:16;;;;;;;;;4.00;4.00;;;;;-146.50;100.00;59256.41;5010728;28;45650;-73
2022/12/20 02:29:13;;;;;;;;;4.75;3.75;;;;;-146.50;100.00;59256.41;5009326;28;45653;-73
2022/12/20 02:31:47;;;;;;;;;4.75;3.00;;;;;-146.50;100.00;59256.41;5012067;28;45622;-73
2022/12/20 02:34:14;;;;;;;;;4.00;4.00;;;;;-146.50;100.00;59256.41;4994382;28;46113;-73
2022/12/20 02:36:39;;;;;;;;;4.00;4.00;;;;;-146.50;100.00;59256.41;4993752;28;45499;-73
2022/12/20 02:39:04;;;;;;;;;3.00;3.00;;;;;-146.50;100.00;59256.41;5009686;28;45840;-73
2022/12/20 02:41:39;;;;;;;;;4.25;3.00;;;;;-146.50;100.00;59256.41;5010271;28;45579;-73
2022/12/20 02:46:59;;;;;;;;;4.00;4.00;;;;;-146.50;100.00;59256.41;5009237;28;45444;-73
2022/12/20 02:49:29;;;;;;;;;3.00;3.00;;;;;-146.50;100.00;59256.41;4993644;28;45466;-73
2022/12/20 02:51:58;;;;;;;;;3.50;2.25;;;;;-146.50;100.00;59256.41;5010790;28;45570;-73
2022/12/20 02:54:23;;;;;;;;;2.00;2.00;;;;;-146.50;100.00;59256.41;5080670;27;45563;-73
2022/12/20 02:57:01;;;;;;;;;2.50;2.50;;;;;-146.50;100.00;59256.41;5077255;27;45561;-73
2022/12/20 02:59:35;;;;;;;;;4.00;2.00;;;;;-146.50;100.00;59256.41;5089827;27;45448;-73
2022/12/20 03:02:01;;;;;;;;;2.75;2.75;;;;;-146.50;100.00;59256.41;5080949;27;45523;-73
2022/12/20 03:04:29;;;;;;;;;2.75;2.75;;;;;-146.50;100.00;59256.41;5089078;27;45616;-73
2022/12/20 03:07:14;;;;;;;;;1.75;1.75;;;;;-146.50;100.00;59256.41;5077236;27;45408;-73
2022/12/20 03:09:43;;;;;;;;;3.25;2.25;;;;;-146.50;100.00;59256.41;5084069;27;45448;-73
2022/12/20 03:12:10;;;;;;;;;2.00;2.00;;;;;-146.50;100.00;59256.41;5086492;27;45767;-73
2022/12/20 03:14:37;;;;;;;;;5.00;3.50;;;;;-146.50;100.00;59256.41;5076617;27;45500;-73
2022/12/20 03:17:02;;;;;;;;;2.75;2.75;;;;;-146.50;100.00;59256.41;5077105;27;45359;-73
2022/12/20 03:19:28;;;;;;;;;3.25;3.00;;;;;-146.50;100.00;59256.41;5087124;27;45434;-73
2022/12/20 03:21:53;;;;;;;;;3.00;3.00;;;;;-146.50;100.00;59256.41;5077155;27;45423;-73
2022/12/20 03:24:19;;;;;;;;;2.75;2.75;;;;;-146.50;100.00;59256.41;5073304;27;46440;-73
2022/12/20 03:26:44;;;;;;;;;0.00;0.00;;;;;-146.50;100.00;59256.41;5073990;28;45449;-73
2022/12/20 03:29:10;;;;;;;;;2.00;2.00;;;;;-146.50;100.00;59256.41;5055624;28;45599;-73
2022/12/20 03:31:36;;;;;;;;;3.00;2.25;;;;;-146.50;100.00;59256.41;5074812;27;45518;-73
2022/12/20 03:34:01;;;;;;;;;4.00;2.50;;;;;-146.50;100.00;59256.41;5074177;27;45730;-73
2022/12/20 03:36:27;;;;;;;;;2.75;2.75;;;;;-146.50;100.00;59256.41;5072408;28;45481;-73
2022/12/20 03:38:53;;;;;;;;;3.00;3.00;;;;;-146.50;100.00;59256.41;5074527;28;45476;-74
2022/12/20 03:41:20;;;;;;;;;3.00;1.75;;;;;-146.50;100.00;59256.41;5073134;28;45532;-73
2022/12/20 03:43:46;;;;;;;;;0.00;0.00;;;;;-146.50;100.00;59256.41;5074068;27;46162;-74
2022/12/20 03:46:11;;;;;;;;;1.25;1.25;;;;;-146.50;100.00;59256.41;5074119;27;45449;-74
2022/12/20 03:48:37;;;;;;;;;2.00;2.00;;;;;-146.50;100.00;59256.41;5074030;27;45869;-73
2022/12/20 03:51:03;;;;;;;;;2.00;2.00;;;;;-146.50;100.00;59256.41;5073874;27;45520;-73
2022/12/20 03:53:29;;;;;;;;;2.50;2.50;;;;;-146.50;100.00;59256.41;5073575;27;46612;-72
2022/12/20 03:55:55;;;;;;;;;5.00;3.00;;;;;-146.50;100.00;59256.41;5073585;27;45458;-73
2022/12/20 03:58:20;;;;;;;;;1.00;1.00;;;;;-146.50;100.00;59256.41;5073656;27;45371;-73
2022/12/20 04:00:46;;;;;;;;;2.00;2.00;;;;;-146.50;100.00;59256.41;5073893;28;45303;-72
2022/12/20 04:03:12;;;;;;;;;2.00;2.00;;;;;-146.50;100.00;59256.41;5073625;27;45440;-72
2022/12/20 04:05:37;;;;;;;;;3.50;3.25;;;;;-146.50;100.00;59256.41;5072356;28;45847;-72
2022/12/20 04:08:03;;;;;;;;;3.00;1.00;;;;;-146.50;100.00;59256.41;5072194;28;45689;-72
2022/12/20 04:10:28;;;;;;;;;2.75;2.75;;;;;-146.50;100.00;59256.41;5071889;28;45430;-72
2022/12/20 04:12:54;;;;;;;;;2.00;2.00;;;;;-146.50;100.00;59256.41;5073009;27;45747;-72
2022/12/20 04:15:19;;;;;;;;;1.75;1.75;;;;;-146.50;100.00;59256.41;5071935;28;45547;-72
2022/12/20 04:17:44;;;;;;;;;2.25;2.25;;;;;-146.50;100.00;59256.41;5073212;27;45399;-72
2022/12/20 04:20:20;;;;;;;;;1.50;1.50;;;;;-146.50;100.00;59256.41;5072983;27;45441;-72
2022/12/20 04:22:49;;;;;;;;;2.00;2.00;;;;;-146.50;100.00;59256.41;5073366;27;46185;-72
2022/12/20 04:25:17;;;;;;;;;2.67;2.00;;;;;-146.50;100.00;59256.41;5073051;27;45436;-72
2022/12/20 04:27:43;;;;;;;;;3.00;2.50;;;;;-146.50;100.00;59256.41;5073363;27;45467;-73
2022/12/20 04:30:09;;;;;;;;;3.00;3.00;;;;;-146.50;100.00;59256.41;5073091;27;45527;-72
2022/12/20 04:32:34;;;;;;;;;1.00;1.00;;;;;-146.50;100.00;59256.41;5073086;27;47321;-72
2022/12/20 04:35:00;;;;;;;;;1.00;1.00;;;;;-146.50;100.00;59256.41;5072802;27;45447;-72
2022/12/20 04:37:26;;;;;;;;;2.00;1.50;;;;;-146.50;100.00;59256.41;5073471;27;45488;-72
2022/12/20 04:39:51;;;;;;;;;0.67;0.67;;;;;-146.50;100.00;59256.41;5073371;27;45436;-72
2022/12/20 04:42:16;;;;;;;;;6.00;2.00;;;;;-146.50;100.00;59256.41;5072830;27;46506;-73
2022/12/20 04:44:42;;;;;;;;;3.00;3.00;;;;;-146.50;100.00;59256.41;5072926;27;45441;-73
2022/12/20 04:47:08;;;;;;;;;2.25;2.00;;;;;-146.50;100.00;59256.41;5073530;27;45375;-72
2022/12/20 04:49:34;;;;;;;;;1.00;1.00;;;;;-146.50;100.00;59256.41;5072943;27;45575;-72
2022/12/20 04:53:46;;;;;;;;;3.00;2.00;;;;;-146.50;100.00;59256.41;5072837;28;46206;-72
2022/12/20 04:54:45;;;;;;;;;4.00;3.00;;;;;-146.50;100.00;59256.41;5072794;28;45342;-72
2022/12/20 04:57:10;;;;;;;;;1.25;0.25;;;;;-146.50;100.00;59256.41;5071438;28;45440;-72
2022/12/20 04:59:36;;;;;;;;;2.00;2.00;;;;;-146.50;100.00;59256.41;5073098;27;45472;-72
2022/12/20 05:02:01;;;;;;;;;2.33;1.00;;;;;-146.50;100.00;59256.41;5071628;28;46284;-72
2022/12/20 05:04:27;;;;;;;;;2.50;1.00;;;;;-146.50;100.00;59256.41;5072629;28;45392;-72
2022/12/20 05:06:52;;;;;;;;;2.00;1.00;;;;;-146.50;100.00;59256.41;5072370;28;45475;-72
2022/12/20 05:09:18;;;;;;;;;1.75;1.75;;;;;-146.50;100.00;59256.41;5072877;27;45503;-72
2022/12/20 05:11:43;;;;;;;;;1.00;1.00;;;;;-146.50;100.00;59256.41;5071215;28;47351;-72
2022/12/20 05:14:09;;;;;;;;;2.00;2.00;;;;;-146.50;100.00;59256.41;5073009;27;45436;-74
2022/12/20 05:16:34;;;;;;;;;1.00;1.00;;;;;-146.50;100.00;59256.41;5090229;27;45525;-72
2022/12/20 05:19:02;;;;;;;;;2.00;2.00;;;;;-146.50;100.00;59256.41;5076090;27;45435;-72
2022/12/20 05:26:55;;;;;;;;;3.00;1.25;;;;;-146.50;100.00;59256.41;5076914;28;45430;-72
2022/12/20 05:29:20;;;;;;;;;2.00;2.00;;;;;-146.50;100.00;59256.41;5074759;28;45788;-72
2022/12/20 05:31:46;;;;;;;;;2.00;2.00;;;;;-146.50;100.00;59256.41;5077381;27;46241;-72
2022/12/20 05:34:11;;;;;;;;;1.25;1.25;;;;;-146.50;100.00;59256.41;5077639;27;45332;-73
2022/12/20 05:36:37;;;;;;;;;1.00;1.00;;;;;-146.50;100.00;59256.41;5077689;27;45441;-72
2022/12/20 05:39:02;;;;;;;;;1.00;1.00;;;;;-146.50;100.00;59256.41;5077464;27;45446;-73
2022/12/20 05:41:27;;;;;;;;;2.00;2.00;;;;;-146.50;100.00;59256.41;5076393;27;45362;-72
2022/12/20 05:43:53;;;;;;;;;2.00;2.00;;;;;-146.50;100.00;59256.41;5076221;27;45383;-72
2022/12/20 05:46:18;;;;;;;;;1.00;1.00;;;;;-146.50;100.00;59256.41;5076410;27;45373;-77
2022/12/20 05:48:43;;;;;;;;;2.00;1.00;;;;;-146.50;100.00;59256.41;5075649;27;45451;-77
2022/12/20 05:51:09;;;;;;;;;1.00;1.00;;;;;-146.50;100.00;59256.41;5075554;27;46367;-78
2022/12/20 05:53:34;;;;;;;;;3.25;2.00;;;;;-146.50;100.00;59256.41;5074838;27;45358;-77
2022/12/20 05:56:00;;;;;;;;;2.50;2.00;;;;;-146.50;100.00;59256.41;5075107;27;45349;-76
2022/12/20 05:58:26;;;;;;;;;1.00;1.00;;;;;-146.50;100.00;59256.41;5073272;28;45453;-76
2022/12/20 06:00:51;;;;;;;;;1.67;1.67;;;;;-146.50;100.00;59256.41;5074544;27;46038;-76
2022/12/20 06:03:17;;;;;;;;;1.67;1.67;;;;;-146.50;100.00;59256.41;5075173;28;45407;-76
2022/12/20 06:05:43;;;;;;;;;2.00;2.00;;;;;-146.50;100.00;59256.41;5075611;28;45456;-77
2022/12/20 06:08:09;;;;;;;;;0.00;0.00;;;;;-146.50;100.00;59256.41;5075378;28;45465;-78
2022/12/20 06:10:35;;;;;;;;;1.50;1.50;;;;;-146.50;100.00;59256.41;5075064;28;45784;-78
2022/12/20 06:13:02;;;;;;;;;2.00;2.00;;;;;-146.50;100.00;59256.41;5074419;27;45517;-76
2022/12/20 06:15:28;;;;;;;;;1.00;1.00;;;;;-146.50;100.00;59256.41;5074608;27;45500;-75
2022/12/20 06:17:53;;;;;;;;;1.00;1.00;;;;;-146.50;100.00;59256.41;5072881;28;45391;-77
2022/12/20 06:20:19;;;;;;;;;2.00;2.00;;;;;-146.50;100.00;59256.41;5070639;28;45612;-76
2022/12/20 06:22:44;;;;;;;;;3.00;2.00;;;;;-146.50;100.00;59256.41;5065335;28;45603;-76
2022/12/20 06:25:11;;;;;;;;;2.00;2.00;;;;;-146.50;100.00;59256.41;5053908;28;45693;-76
2022/12/20 06:27:37;;;;;;;;;3.00;2.00;;;;;-146.50;100.00;59256.41;5053608;28;45572;-76
2022/12/20 06:30:04;;;;;;;;;1.33;1.00;;;;;-146.50;100.00;59256.41;5065350;28;45627;-73
2022/12/20 06:32:29;;;;;;;;;2.25;1.75;;;;;-146.50;100.00;59256.41;5073921;27;45428;-74
2022/12/20 06:34:54;;;;;;;;;2.00;2.00;;;;;-146.50;100.00;59256.41;5049918;28;45522;-73
2022/12/20 06:37:20;;;;;;;;;3.00;2.00;;;;;-146.50;100.00;59256.41;5062820;28;45659;-72
2022/12/20 06:39:45;;;;;;;;;2.00;1.00;;;;;-146.50;100.00;59256.41;5053535;28;46322;-72
2022/12/20 06:42:10;;;;;;;;;3.00;3.00;;;;;-146.50;100.00;59256.41;5066630;28;45556;-72
2022/12/20 06:44:36;;;;;;;;;2.50;2.00;;;;;-146.50;100.00;59256.41;5072815;28;45647;-73
2022/12/20 06:47:01;;;;;;;;;1.00;1.00;;;;;-146.50;100.00;59256.41;5073833;27;45792;-72
2022/12/20 06:49:27;;;;;;;;;4.00;3.25;;;;;-146.50;100.00;59256.41;5074001;28;46048;-72
2022/12/20 06:51:52;;;;;;;;;2.00;2.00;;;;;-146.50;100.00;59256.41;5073991;27;45390;-74
2022/12/20 06:54:18;;;;;;;;;1.25;1.25;;;;;-146.50;100.00;59256.41;5073725;27;45603;-74
2022/12/20 06:56:43;;;;;;;;;3.00;3.00;;;;;-146.50;100.00;59256.41;5073780;27;45340;-74
2022/12/20 06:59:08;;;;;;;;;1.00;1.00;;;;;-146.50;100.00;59256.41;5072810;27;46240;-73
2022/12/20 07:01:34;;;;;;;;;5.50;4.25;;;;;-146.50;100.00;59256.41;5073320;28;45394;-73
2022/12/20 07:03:59;;;;;;;;;2.00;2.00;;;;;-146.50;100.00;59256.41;5073269;28;45428;-74
2022/12/20 07:06:25;;;;;;;;;2.25;2.25;;;;;-146.50;100.00;59256.41;5073592;28;45355;-74
2022/12/20 07:08:51;;;;;;;;;3.75;3.00;;;;;-146.50;100.00;59256.41;5073227;27;45392;-75
2022/12/20 07:11:17;;;;;;;;;2.00;1.50;;;;;-146.50;100.00;59256.41;5071588;28;45671;-74
2022/12/20 07:13:42;;;;;;;;;2.00;2.00;;;;;-146.50;100.00;59256.41;5023527;27;1206689;-75
2022/12/20 07:16:08;;;;;;;;;1.25;1.25;;;;;-146.50;100.00;59256.41;5054313;28;45545;-75
2022/12/20 07:18:34;;;;;;;;;3.75;3.25;;;;;-146.50;100.00;59256.41;5069905;28;45432;-74
2022/12/20 07:21:01;;;;;;;;;2.00;2.00;;;;;-146.50;100.00;59256.41;5074312;27;45411;-74
2022/12/20 07:23:27;;;;;;;;;3.25;3.25;;;;;-146.50;100.00;59256.41;5074257;27;45403;-75
2022/12/20 07:25:57;;;;;;;;;1.50;1.50;;;;;-146.50;100.00;59256.41;5074332;27;45356;-76
2022/12/20 07:28:23;;;;;;;;;2.75;2.00;;;;;-146.50;100.00;59256.41;5073930;27;46521;-75
2022/12/20 07:30:49;;;;;;;;;1.75;1.75;;;;;-146.50;100.00;59256.41;5073561;27;45429;-76
2022/12/20 07:33:14;;;;;;;;;1.33;1.33;;;;;-146.50;100.00;59256.41;5074398;27;45412;-74
2022/12/20 07:35:40;;;;;;;;;2.00;1.00;;;;;-146.50;100.00;59256.41;5066930;27;45599;-74
2022/12/20 07:38:05;;;;;;;;;2.00;2.00;;;;;-146.50;100.00;59256.41;5053736;28;45422;-74
2022/12/20 07:40:31;;;;;;;;;3.00;1.00;;;;;-146.50;100.00;59256.41;5053052;28;45611;-74
2022/12/20 07:42:56;;;;;;;;;3.00;1.00;;;;;-146.50;100.00;59256.41;5072954;28;45642;-74
2022/12/20 07:45:21;;;;;;;;;1.00;1.00;;;;;-146.50;100.00;59256.41;5074557;27;45433;-74
2022/12/20 07:47:47;;;;;;;;;2.00;1.00;;;;;-146.50;100.00;59256.41;5067416;27;45464;-75
2022/12/20 07:50:12;;;;;;;;;1.00;1.00;;;;;-146.50;100.00;59256.41;5058366;27;45483;-75
2022/12/20 07:52:41;;;;;;;;;1.50;1.50;;;;;-146.50;100.00;59256.41;5053666;28;45493;-74
2022/12/20 07:55:08;;;;;;;;;2.00;2.00;;;;;-146.50;100.00;59256.41;5074196;27;45544;-74
2022/12/20 07:57:50;;;;;;;;;2.33;2.33;;;;;-146.50;100.00;59256.41;5072204;28;45669;-74
2022/12/20 08:00:17;;;;;;;;;3.00;1.75;;;;;-146.50;100.00;59256.41;5063929;28;45362;-74
2022/12/20 08:02:55;;;;;;;;;2.00;2.00;;;;;-146.50;100.00;59256.41;5053740;28;45413;-74
2022/12/20 08:05:21;;;;;;;;;1.00;1.00;;;;;-146.50;100.00;59256.41;5059092;28;45795;-74
2022/12/20 08:07:47;;;;;;;;;3.33;2.00;;;;;-146.50;100.00;59256.41;5073396;27;46347;-74
2022/12/20 08:10:16;;;;;;;;;1.75;1.75;;;;;-146.50;100.00;59256.41;5073559;27;45439;-74
2022/12/20 08:12:44;;;;;;;;;2.67;2.67;;;;;-146.50;100.00;59256.41;5068307;27;45421;-74
2022/12/20 08:15:10;;;;;;;;;4.00;2.00;;;;;-146.50;100.00;59256.41;5077726;27;45383;-73
2022/12/20 08:17:35;;;;;;;;;2.25;1.00;;;;;-146.50;100.00;59256.41;5068493;28;47780;-73
2022/12/20 08:20:02;;;;;;;;;1.00;1.00;;;;;-146.50;100.00;59256.41;5052790;28;45457;-74
2022/12/20 08:22:27;;;;;;;;;2.25;1.75;;;;;-146.50;100.00;59256.41;5068243;28;45354;-74
2022/12/20 08:24:54;;;;;;;;;2.00;0.00;;;;;-146.50;100.00;59256.41;5071317;27;45307;-74
2022/12/20 08:27:19;;;;;;;;;2.00;1.00;;;;;-146.50;100.00;59256.41;5072491;27;45603;-73
2022/12/20 08:29:44;;;;;;;;;2.00;2.00;;;;;-146.50;100.00;59256.41;5073316;27;45424;-74
2022/12/20 08:32:11;;;;;;;;;1.00;1.00;;;;;-146.50;100.00;59256.41;5071611;27;45702;-73
2022/12/20 08:34:37;;;;;;;;;3.00;1.75;;;;;-146.50;100.00;59256.41;5073515;27;45456;-73
2022/12/20 08:37:02;;;;;;;;;1.25;1.25;;;;;-146.50;100.00;59256.41;5074009;27;45424;-73
2022/12/20 08:39:27;;;;;;;;;1.25;1.25;;;;;-146.50;100.00;59256.41;5074472;27;45494;-73
2022/12/20 08:41:53;;;;;;;;;1.00;1.00;;;;;-146.50;100.00;59256.41;5073073;28;45413;-72
2022/12/20 08:44:18;;;;;;;;;1.75;1.00;;;;;-146.50;100.00;59256.41;5073869;27;45744;-72
2022/12/20 08:46:43;;;;;;;;;2.75;2.75;;;;;-146.50;100.00;59256.41;5073151;27;46166;-76
2022/12/20 08:49:09;;;;;;;;;1.25;1.25;;;;;-146.50;100.00;59256.41;5072791;27;45444;-75
2022/12/20 08:51:34;;;;;;;;;3.00;2.00;;;;;-146.50;100.00;59256.41;5072979;27;45468;-75
2022/12/20 08:54:01;;;;;;;;;3.00;3.00;;;;;-146.50;100.00;59256.41;5073102;27;45463;-75
2022/12/20 08:56:27;;;;;;;;;2.00;2.00;;;;;-146.50;100.00;59256.41;5071426;28;45546;-74
2022/12/20 08:58:52;;;;;;;;;3.00;2.00;;;;;-146.50;100.00;59256.41;5072611;27;45528;-76
2022/12/20 09:01:19;;;;;;;;;2.00;2.00;;;;;-146.50;100.00;59256.41;5072924;28;45491;-75
2022/12/20 09:03:45;;;;;;;;;1.50;1.50;;;;;-146.50;100.00;59256.41;5073080;28;45379;-75
2022/12/20 09:06:19;;;;;;;;;1.00;1.00;;;;;-146.50;100.00;59256.41;5072804;28;46350;-75
2022/12/20 09:08:45;;;;;;;;;2.00;2.00;;;;;-146.50;100.00;59256.41;5072983;28;45386;-75
2022/12/20 09:11:12;;;;;;;;;1.00;1.00;;;;;-146.50;100.00;59256.41;5071110;28;45441;-73
2022/12/20 09:13:39;;;;;;;;;1.50;1.50;;;;;-146.50;100.00;59256.41;5072308;27;45508;-73
2022/12/20 09:16:06;;;;;;;;;2.25;1.50;;;;;-146.50;100.00;59256.41;5071068;28;47266;-73
2022/12/20 09:18:32;;;;;;;;;2.00;2.00;;;;;-146.50;100.00;59256.41;5070858;28;45463;-72
2022/12/20 09:21:05;;;;;;;;;2.00;1.00;;;;;-146.50;100.00;59256.41;5072570;27;45615;-74
2022/12/20 09:23:31;;;;;;;;;2.00;2.00;;;;;-146.50;100.00;59256.41;5072608;27;45874;-74
2022/12/20 09:26:02;;;;;;;;;1.00;1.00;;;;;-146.50;100.00;59256.41;5071824;27;45455;-73
2022/12/20 09:28:28;;;;;;;;;2.75;2.00;;;;;-146.50;100.00;59256.41;5070788;28;45502;-73
2022/12/20 09:30:58;;;;;;;;;3.00;3.00;;;;;-146.50;100.00;59256.41;5071707;28;45563;-73
2022/12/20 09:33:23;;;;;;;;;1.00;1.00;;;;;-146.50;100.00;59256.41;5072350;27;45598;-73
2022/12/20 09:35:49;;;;;;;;;1.50;0.75;;;;;-146.50;100.00;59256.41;5071980;27;46308;-73
2022/12/20 09:38:14;;;;;;;;;2.00;2.00;;;;;-146.50;100.00;59256.41;5072112;27;45424;-73
2022/12/20 09:40:45;;;;;;;;;2.00;2.00;;;;;-146.50;100.00;59256.41;5071680;27;45484;-73
2022/12/20 09:43:12;;;;;;;;;1.25;1.25;;;;;-146.50;100.00;59256.41;5072212;28;45512;-73
2022/12/20 09:45:38;;;;;;;;;1.75;1.75;;;;;-146.50;100.00;59256.41;5072298;28;45448;-72
2022/12/20 09:48:04;;;;;;;;;5.00;1.75;;;;;-146.50;100.00;59256.41;5072463;27;45375;-74
2022/12/20 09:51:03;;;;;;;;;3.50;2.75;;;;;-146.50;100.00;59256.41;5072482;27;45434;-75
2022/12/20 09:53:40;;;;;;;;;3.00;1.75;;;;;-146.50;100.00;59256.41;5065058;28;45540;-76
2022/12/20 09:56:19;;;;;;;;;4.75;2.75;;;;;-146.50;100.00;59256.41;5046773;28;45544;-75
2022/12/20 09:59:00;;;;;;;;;5.75;3.00;;;;;-146.50;100.00;59256.41;5050523;28;45755;-76
2022/12/20 10:01:30;;;;;;;;;2.50;2.50;;;;;-146.50;100.00;59256.41;5048499;28;45796;-75
2022/12/20 10:03:57;;;;;;;;;3.00;3.00;;;;;-146.50;100.00;59256.41;5050802;28;45443;-75
2022/12/20 10:06:35;;;;;;;;;2.50;2.00;;;;;-146.50;100.00;59256.41;5047203;28;46432;-75
2022/12/20 10:09:09;;;;;;;;;7.00;4.00;;;;;-146.50;100.00;59256.41;5051566;28;45458;-74
2022/12/20 10:12:08;;;;;;;;;7.50;2.75;;;;;-146.50;100.00;59256.41;5052785;28;45411;-74
2022/12/20 10:14:45;;;;;;;;;5.00;4.00;;;;;-146.50;100.00;59256.41;5051771;28;45427;-73
2022/12/20 10:17:19;;;;;;;;;3.00;3.00;;;;;-146.50;100.00;59256.41;5048028;28;46304;-72
2022/12/20 10:20:23;;;;;;;;;3.00;3.00;;;;;-146.50;100.00;59256.41;5051481;28;45661;-72
2022/12/20 10:23:12;;;;;;;;;3.50;2.50;;;;;-146.50;100.00;59256.41;4972148;28;45648;-72
2022/12/20 10:25:40;;;;;;;;;4.50;3.75;;;;;-146.50;100.00;59256.41;4969784;28;45591;-72
2022/12/20 10:28:15;;;;;;;;;5.00;3.75;;;;;-146.50;100.00;59256.41;4955602;28;45520;-73
2022/12/20 10:30:41;;;;;;;;;3.75;3.75;;;;;-146.50;100.00;59256.41;4970628;28;45466;-73
2022/12/20 10:33:19;;;;;;;;;3.25;3.25;;;;;-146.50;100.00;59256.41;4992247;28;45376;-73
2022/12/20 10:35:45;;;;;;;;;2.00;2.00;;;;;-146.50;100.00;59256.41;4992198;28;45498;-73
2022/12/20 10:38:12;;;;;;;;;2.50;2.50;;;;;-146.50;100.00;59256.41;4975173;28;46945;-74
2022/12/20 10:40:54;;;;;;;;;3.50;3.25;;;;;-146.50;100.00;59256.41;4992385;28;45420;-74
2022/12/20 10:43:22;;;;;;;;;4.00;3.00;;;;;-146.50;100.00;59256.41;4972540;28;45491;-74
2022/12/20 10:46:03;;;;;;;;;4.00;4.00;;;;;-146.50;100.00;59256.41;4972480;28;45540;-74
2022/12/20 10:48:30;;;;;;;;;3.00;1.75;;;;;-146.50;100.00;59256.41;4972267;28;45419;-73
2022/12/20 10:51:01;;;;;;;;;2.25;2.25;;;;;-146.50;100.00;59256.41;4972393;28;45346;-73
2022/12/20 10:53:27;;;;;;;;;2.00;2.00;;;;;-146.50;100.00;59256.41;4972367;28;45541;-73
2022/12/20 10:56:09;;;;;;;;;2.50;2.25;;;;;-146.50;100.00;59256.41;4981266;28;45436;-73
2022/12/20 10:58:36;;;;;;;;;2.75;2.75;;;;;-146.50;100.00;59256.41;5058062;28;46504;-73
2022/12/20 11:01:16;;;;;;;;;4.25;3.00;;;;;-146.50;100.00;59256.41;5074484;28;45366;-73
2022/12/20 11:03:55;;;;;;;;;4.00;3.00;;;;;-146.50;100.00;59256.41;5073956;27;45307;-73
2022/12/20 11:06:24;;;;;;;;;2.00;2.00;;;;;-146.50;100.00;59256.41;5074401;27;45403;-74
2022/12/20 11:08:50;;;;;;;;;4.00;4.00;;;;;-146.50;100.00;59256.41;5074540;28;45460;-73
2022/12/20 11:11:22;;;;;;;;;4.25;3.25;;;;;-146.50;100.00;59256.41;5074201;27;45349;-74
2022/12/20 11:13:49;;;;;;;;;3.00;3.00;;;;;-146.50;100.00;59256.41;5089050;27;45454;-72
2022/12/20 11:16:25;;;;;;;;;3.75;3.00;;;;;-146.50;100.00;59256.41;5074657;27;45405;-74
2022/12/20 11:19:10;;;;;;;;;2.25;2.25;;;;;-146.50;100.00;59256.41;5073330;27;46295;-75
2022/12/20 11:21:53;;;;;;;;;4.25;4.00;;;;;-146.50;100.00;59256.41;5062441;28;45445;-74
2022/12/20 11:24:36;;;;;;;;;3.00;3.00;;;;;-146.50;100.00;59256.41;5073086;28;45531;-73